Time;durP1;ratioP1;P1;durP2;ratioP2;P2;SDS_P1;SDS_P2;PMS_P1;PMS_P2;Temp;Humidity;BMP_temperature;BMP_pressure;BME280_temperature;BME280_humidity;BME280_pressure;Samples;Min_cycle;Max_cycle;Signal;HPM_P1;HPM_P2
2023/08/06 00:00:40;;;;;;;;;;;;;;;15.78;nan;99446.00;5054015;28;20237;-84
2023/08/06 00:03:05;;;;;;;;;;;;;;;15.80;nan;99447.44;5051868;28;19966;-84
2023/08/06 00:05:30;;;;;;;;;;;;;;;15.87;nan;99456.22;5048279;28;20337;-84
2023/08/06 00:07:55;;;;;;;;;;;;;;;;;;5050907;28;20325;-84
2023/08/06 00:10:21;;;;;;;;;;;;;;;15.96;nan;99447.97;5048173;28;19928;-84
2023/08/06 00:12:46;;;;;;;;;;;;;;;15.99;nan;99444.88;5050964;28;19921;-84
2023/08/06 00:15:11;;;;;;;;;;;;;;;15.99;nan;99442.19;5046226;28;20394;-84
2023/08/06 00:17:37;;;;;;;;;;;;;;;15.96;nan;99446.13;5049288;28;19917;-85
2023/08/06 00:20:04;;;;;;;;;;;;;;;;;;5048271;28;20001;-84
2023/08/06 00:22:29;;;;;;;;;;;;;;;;;;5049511;28;19916;-84
2023/08/06 00:24:57;;;;;;;;;;;;;;;;;;5045854;28;19924;-84
2023/08/06 00:27:23;;;;;;;;;;;;;;;15.98;nan;99432.59;5046546;28;19917;-84
2023/08/06 00:29:51;;;;;;;;;;;;;;;16.01;nan;99419.63;5047229;28;20292;-84
2023/08/06 00:32:17;;;;;;;;;;;;;;;16.02;nan;99410.63;5045594;28;19921;-84
2023/08/06 00:34:43;;;;;;;;;;;;;;;16.09;nan;99418.56;5048195;28;20030;-85
2023/08/06 00:37:08;;;;;;;;;;;;;;;;;;5044668;28;20230;-84
2023/08/06 00:39:33;;;;;;;;;;;;;;;16.22;nan;99420.31;5046932;28;19917;-84
2023/08/06 00:41:58;;;;;;;;;;;;;;;16.27;nan;99412.50;5048535;28;19916;-85
2023/08/06 00:44:23;;;;;;;;;;;;;;;16.30;nan;99406.72;5047843;28;19948;-85
2023/08/06 00:46:49;;;;;;;;;;;;;;;16.37;nan;99390.66;5049601;28;20340;-85
2023/08/06 00:49:14;;;;;;;;;;;;;;;16.41;nan;99392.69;5051347;28;20362;-84
2023/08/06 00:51:42;;;;;;;;;;;;;;;;;;5055647;28;19921;-83
2023/08/06 00:54:07;;;;;;;;;;;;;;;16.46;nan;99400.84;5058129;28;19912;-86
2023/08/06 00:56:35;;;;;;;;;;;;;;;16.45;nan;99393.88;5058405;28;19917;-84
2023/08/06 00:59:01;;;;;;;;;;;;;;;16.47;nan;99385.66;5060075;28;19928;-85
2023/08/06 01:01:26;;;;;;;;;;;;;;;;;;5060188;28;20357;-85
2023/08/06 01:03:52;;;;;;;;;;;;;;;16.44;nan;99392.25;5060335;28;19919;-85
2023/08/06 01:06:17;;;;;;;;;;;;;;;;;;5060027;28;19913;-85
2023/08/06 01:08:49;;;;;;;;;;;;;;;16.53;nan;99388.25;5059879;28;19920;-84
2023/08/06 01:11:23;;;;;;;;;;;;;;;16.59;nan;99388.41;5056646;28;19925;-86
2023/08/06 01:13:54;;;;;;;;;;;;;;;16.66;nan;99383.84;5051976;28;19977;-87
2023/08/06 01:16:20;;;;;;;;;;;;;;;16.69;nan;99384.22;5050436;28;19913;-85
2023/08/06 01:18:49;;;;;;;;;;;;;;;16.70;nan;99379.69;5061613;28;20294;-86
2023/08/06 01:21:18;;;;;;;;;;;;;;;16.72;nan;99378.44;5061614;28;19927;-85
2023/08/06 01:23:47;;;;;;;;;;;;;;;16.73;nan;99385.44;5061156;28;19970;-86
2023/08/06 01:26:30;;;;;;;;;;;;;;;16.72;nan;99372.28;5059915;28;19917;-84
2023/08/06 01:28:59;;;;;;;;;;;;;;;16.69;nan;99352.19;5062181;28;19920;-83
2023/08/06 01:31:28;;;;;;;;;;;;;;;16.66;nan;99352.66;5060735;28;20318;-85
2023/08/06 01:33:58;;;;;;;;;;;;;;;16.64;nan;99368.06;5063436;28;19925;-84
2023/08/06 01:36:24;;;;;;;;;;;;;;;16.66;nan;99359.81;5061569;28;19912;-83
2023/08/06 01:38:52;;;;;;;;;;;;;;;16.68;nan;99355.06;5060573;28;20064;-85
2023/08/06 01:41:17;;;;;;;;;;;;;;;;;;5059585;28;19936;-85
2023/08/06 01:43:43;;;;;;;;;;;;;;;16.72;nan;99346.41;5063356;28;19924;-84
2023/08/06 01:46:08;;;;;;;;;;;;;;;;;;5061358;28;20354;-85
2023/08/06 01:48:33;;;;;;;;;;;;;;;16.77;nan;99354.56;5061479;28;19923;-84
2023/08/06 01:50:58;;;;;;;;;;;;;;;16.79;nan;99340.22;5061179;28;19952;-84
2023/08/06 01:53:27;;;;;;;;;;;;;;;16.78;nan;99355.41;5060987;28;19979;-83
2023/08/06 01:55:52;;;;;;;;;;;;;;;16.70;nan;99337.00;5060114;28;19940;-87
2023/08/06 01:58:18;;;;;;;;;;;;;;;16.68;nan;99341.72;5057788;28;19912;-85
2023/08/06 02:00:43;;;;;;;;;;;;;;;16.64;nan;99336.03;5059035;28;20031;-85
2023/08/06 02:03:08;;;;;;;;;;;;;;;;;;5058762;28;20293;-85
2023/08/06 02:05:34;;;;;;;;;;;;;;;16.54;nan;99349.88;5059400;28;19959;-84
2023/08/06 02:07:59;;;;;;;;;;;;;;;16.56;nan;99347.81;5058538;28;19921;-85
2023/08/06 02:10:24;;;;;;;;;;;;;;;16.56;nan;99341.63;5058408;28;19913;-85
2023/08/06 02:12:50;;;;;;;;;;;;;;;16.57;nan;99332.63;5056116;28;19920;-84
2023/08/06 02:15:15;;;;;;;;;;;;;;;16.61;nan;99349.00;5059646;28;19924;-85
2023/08/06 02:17:41;;;;;;;;;;;;;;;16.61;nan;99338.31;5055748;28;20318;-85
2023/08/06 02:20:06;;;;;;;;;;;;;;;16.60;nan;99348.19;5056458;28;20433;-85
2023/08/06 02:22:33;;;;;;;;;;;;;;;16.62;nan;99335.44;5054152;28;19912;-85
2023/08/06 02:24:58;;;;;;;;;;;;;;;16.62;nan;99339.97;5057936;28;19912;-83
2023/08/06 02:27:26;;;;;;;;;;;;;;;16.60;nan;99348.19;5057031;28;19912;-86
2023/08/06 02:29:51;;;;;;;;;;;;;;;16.61;nan;99338.31;5057213;28;20016;-83
2023/08/06 02:32:16;;;;;;;;;;;;;;;;;;5059073;28;20136;-84
2023/08/06 02:34:42;;;;;;;;;;;;;;;16.60;nan;99326.81;5061727;28;19920;-85
2023/08/06 02:37:07;;;;;;;;;;;;;;;16.60;nan;99328.69;5057151;28;20011;-84
2023/08/06 02:39:34;;;;;;;;;;;;;;;16.55;nan;99324.81;5057382;28;20340;-85
2023/08/06 02:41:59;;;;;;;;;;;;;;;;;;5061594;28;19913;-86
2023/08/06 02:44:27;;;;;;;;;;;;;;;16.52;nan;99335.13;5060224;28;19935;-85
2023/08/06 02:46:53;;;;;;;;;;;;;;;16.49;nan;99330.22;5053909;28;19987;-84
2023/08/06 02:49:18;;;;;;;;;;;;;;;16.47;nan;99310.94;5061954;28;19955;-85
2023/08/06 02:51:53;;;;;;;;;;;;;;;16.42;nan;99313.44;5061652;28;19917;-84
2023/08/06 02:54:19;;;;;;;;;;;;;;;16.42;nan;99324.13;5059325;28;19916;-85
2023/08/06 02:56:45;;;;;;;;;;;;;;;16.37;nan;99310.63;5061960;28;19917;-84
2023/08/06 02:59:11;;;;;;;;;;;;;;;16.33;nan;99304.94;5060564;28;19916;-84
2023/08/06 03:01:36;;;;;;;;;;;;;;;;;;5061468;28;19935;-85
2023/08/06 03:04:03;;;;;;;;;;;;;;;16.19;nan;99303.41;5059265;28;19916;-85
2023/08/06 03:06:28;;;;;;;;;;;;;;;16.10;nan;99310.84;5059724;28;19924;-84
2023/08/06 03:08:53;;;;;;;;;;;;;;;;;;5059885;28;19917;-84
2023/08/06 03:11:21;;;;;;;;;;;;;;;;;;5056899;28;19994;-84
2023/08/06 03:13:47;;;;;;;;;;;;;;;16.04;nan;99307.22;5061433;28;19948;-83
2023/08/06 03:16:13;;;;;;;;;;;;;;;16.06;nan;99299.00;5059392;28;19913;-84
2023/08/06 03:18:38;;;;;;;;;;;;;;;;;;5060168;28;19955;-85
2023/08/06 03:21:03;;;;;;;;;;;;;;;16.05;nan;99286.69;5061118;28;19925;-86
2023/08/06 03:23:29;;;;;;;;;;;;;;;16.05;nan;99292.84;5053815;28;19923;-84
2023/08/06 03:25:54;;;;;;;;;;;;;;;;;;5058935;28;19917;-83
2023/08/06 03:28:19;;;;;;;;;;;;;;;16.08;nan;99296.91;5057167;28;20383;-83
2023/08/06 03:30:45;;;;;;;;;;;;;;;;;;5060215;28;19916;-85
2023/08/06 03:33:10;;;;;;;;;;;;;;;;;;5060994;28;19912;-85
2023/08/06 03:35:35;;;;;;;;;;;;;;;16.09;nan;99293.25;5059228;28;19917;-83
2023/08/06 03:38:01;;;;;;;;;;;;;;;16.08;nan;99275.59;5059705;28;19916;-85
2023/08/06 03:40:26;;;;;;;;;;;;;;;16.08;nan;99289.72;5058114;28;19942;-86
2023/08/06 03:42:52;;;;;;;;;;;;;;;16.05;nan;99297.38;5056676;28;19916;-84
2023/08/06 03:45:17;;;;;;;;;;;;;;;;;;5066678;28;19966;-85
2023/08/06 03:47:45;;;;;;;;;;;;;;;16.04;nan;99279.72;5050669;28;19923;-84
2023/08/06 03:50:12;;;;;;;;;;;;;;;16.03;nan;99289.56;5050035;28;19976;-84
2023/08/06 03:52:38;;;;;;;;;;;;;;;16.03;nan;99289.56;5056179;28;19943;-85
2023/08/06 03:55:03;;;;;;;;;;;;;;;16.03;nan;99294.09;5057027;28;20366;-85
2023/08/06 03:57:28;;;;;;;;;;;;;;;16.05;nan;99294.69;5058022;28;19995;-83
2023/08/06 03:59:54;;;;;;;;;;;;;;;;;;5055713;28;19913;-84
2023/08/06 04:02:19;;;;;;;;;;;;;;;16.06;nan;99289.13;5053651;28;20003;-84
2023/08/06 04:04:44;;;;;;;;;;;;;;;;;;5055259;28;19917;-83
2023/08/06 04:07:09;;;;;;;;;;;;;;;16.05;nan;99282.19;5057375;28;19917;-83
2023/08/06 04:09:36;;;;;;;;;;;;;;;;;;5054844;28;19917;-84
2023/08/06 04:12:02;;;;;;;;;;;;;;;16.02;nan;99287.16;5059170;28;19917;-85
2023/08/06 04:14:28;;;;;;;;;;;;;;;;;;5058150;28;19920;-85
2023/08/06 04:16:53;;;;;;;;;;;;;;;15.98;nan;99285.94;5058260;28;19912;-85
2023/08/06 04:19:21;;;;;;;;;;;;;;;15.95;nan;99286.38;5045114;28;20397;-84
2023/08/06 04:21:47;;;;;;;;;;;;;;;;;;5050448;28;19955;-84
2023/08/06 04:24:12;;;;;;;;;;;;;;;;;;5045424;28;19923;-86
2023/08/06 04:26:37;;;;;;;;;;;;;;;15.95;nan;99281.06;5048560;28;20318;-84
2023/08/06 04:29:03;;;;;;;;;;;;;;;15.94;nan;99285.53;5051004;28;20090;-83
2023/08/06 04:31:28;;;;;;;;;;;;;;;15.93;nan;99279.41;5051447;28;19921;-83
2023/08/06 04:33:53;;;;;;;;;;;;;;;;;;5052379;28;19917;-82
2023/08/06 04:36:19;;;;;;;;;;;;;;;15.81;nan;99286.47;5051436;28;20963;-84
2023/08/06 04:38:47;;;;;;;;;;;;;;;;;;5051006;28;20405;-84
2023/08/06 04:41:12;;;;;;;;;;;;;;;;;;5049576;28;19984;-85
2023/08/06 04:43:37;;;;;;;;;;;;;;;;;;5048571;28;19944;-83
2023/08/06 04:46:02;;;;;;;;;;;;;;;;;;5051693;28;19917;-84
2023/08/06 04:48:28;;;;;;;;;;;;;;;15.61;nan;99291.06;5050168;28;19917;-84
2023/08/06 04:50:53;;;;;;;;;;;;;;;;;;5051002;28;19916;-84
2023/08/06 04:53:18;;;;;;;;;;;;;;;;;;5050238;28;20290;-84
2023/08/06 04:55:46;;;;;;;;;;;;;;;;;;5051345;28;20305;-83
2023/08/06 04:58:12;;;;;;;;;;;;;;;;;;5049469;28;19955;-84
2023/08/06 05:00:37;;;;;;;;;;;;;;;;;;5051608;28;19928;-84
2023/08/06 05:03:05;;;;;;;;;;;;;;;15.28;nan;99276.13;5052626;28;19917;-84
2023/08/06 05:05:31;;;;;;;;;;;;;;;15.33;nan;99273.63;5051885;28;19924;-83
2023/08/06 05:07:56;;;;;;;;;;;;;;;;;;5053567;28;20294;-84
2023/08/06 05:10:21;;;;;;;;;;;;;;;15.37;nan;99274.81;5052128;28;19912;-83
2023/08/06 05:12:47;;;;;;;;;;;;;;;15.38;nan;99259.69;5046083;28;19917;-84
2023/08/06 05:15:12;;;;;;;;;;;;;;;;;;5052631;28;20369;-85
2023/08/06 05:17:37;;;;;;;;;;;;;;;;;;5053717;28;19917;-83
2023/08/06 05:20:03;;;;;;;;;;;;;;;;;;5050314;28;19924;-84
2023/08/06 05:22:28;;;;;;;;;;;;;;;;;;5050978;28;19920;-84
2023/08/06 05:24:53;;;;;;;;;;;;;;;14.98;nan;99279.31;5052849;28;19995;-83
2023/08/06 05:27:18;;;;;;;;;;;;;;;;;;5051503;28;19917;-83
2023/08/06 05:29:44;;;;;;;;;;;;;;;;;;5051035;28;19970;-84
2023/08/06 05:32:10;;;;;;;;;;;;;;;;;;5043207;28;19929;-83
2023/08/06 05:34:35;;;;;;;;;;;;;;;;;;5051398;28;19931;-82
2023/08/06 05:37:00;;;;;;;;;;;;;;;;;;5050790;28;19923;-83
2023/08/06 05:39:25;;;;;;;;;;;;;;;;;;5052336;28;19920;-84
2023/08/06 05:41:53;;;;;;;;;;;;;;;;;;5052145;28;19968;-84
2023/08/06 05:44:18;;;;;;;;;;;;;;;;;;5052945;28;19941;-85
2023/08/06 05:46:43;;;;;;;;;;;;;;;;;;5054718;28;19931;-84
2023/08/06 05:49:08;;;;;;;;;;;;;;;;;;5055306;28;20377;-84
2023/08/06 05:51:33;;;;;;;;;;;;;;;;;;5056332;28;19921;-84
2023/08/06 05:53:59;;;;;;;;;;;;;;;;;;5049436;28;19917;-85
2023/08/06 05:56:24;;;;;;;;;;;;;;;;;;5053412;28;19916;-85
2023/08/06 05:58:51;;;;;;;;;;;;;;;;;;5052569;28;20004;-85
2023/08/06 06:01:16;;;;;;;;;;;;;;;;;;5052351;28;19923;-86
2023/08/06 06:03:41;;;;;;;;;;;;;;;;;;5051552;28;19917;-85
2023/08/06 06:06:06;;;;;;;;;;;;;;;;;;5050809;28;19917;-86
2023/08/06 06:08:32;;;;;;;;;;;;;;;;;;5051950;28;19926;-84
2023/08/06 06:10:57;;;;;;;;;;;;;;;;;;5051888;28;20297;-84
2023/08/06 06:13:22;;;;;;;;;;;;;;;;;;5056966;28;19918;-84
2023/08/06 06:15:47;;;;;;;;;;;;;;;;;;5060471;28;19938;-84
2023/08/06 06:18:13;;;;;;;;;;;;;;;;;;5057218;28;20124;-86
2023/08/06 06:20:41;;;;;;;;;;;;;;;;;;5053192;28;20417;-84
2023/08/06 06:23:06;;;;;;;;;;;;;;;;;;5060901;28;19922;-85
2023/08/06 06:25:34;;;;;;;;;;;;;;;;;;5060549;28;19920;-86
2023/08/06 06:27:59;;;;;;;;;;;;;;;;;;5057777;28;19916;-85
2023/08/06 06:30:24;;;;;;;;;;;;;;;;;;5054960;28;19917;-85
2023/08/06 06:32:49;;;;;;;;;;;;;;;;;;5057129;28;20343;-86
2023/08/06 06:35:14;;;;;;;;;;;;;;;;;;5057394;28;19960;-85
2023/08/06 06:37:40;;;;;;;;;;;;;;;;;;5060391;28;19917;-85
2023/08/06 06:40:05;;;;;;;;;;;;;;;;;;5055660;28;20020;-86
2023/08/06 06:42:30;;;;;;;;;;;;;;;;;;5060059;28;19916;-85
2023/08/06 06:44:55;;;;;;;;;;;;;;;;;;5061604;28;19916;-85
2023/08/06 06:47:20;;;;;;;;;;;;;;;;;;5059273;28;19948;-85
2023/08/06 06:49:45;;;;;;;;;;;;;;;;;;5057759;28;19924;-84
2023/08/06 06:52:11;;;;;;;;;;;;;;;;;;5057524;28;19996;-84
2023/08/06 06:54:36;;;;;;;;;;;;;;;;;;5054564;28;19917;-85
2023/08/06 06:57:01;;;;;;;;;;;;;;;;;;5053557;28;19925;-85
2023/08/06 06:59:26;;;;;;;;;;;;;;;;;;5059052;28;19920;-85
2023/08/06 07:01:52;;;;;;;;;;;;;;;;;;5053092;28;19916;-86
2023/08/06 07:04:17;;;;;;;;;;;;;;;;;;5067939;28;19916;-86
2023/08/06 07:06:42;;;;;;;;;;;;;;;;;;5062671;28;19928;-86
2023/08/06 07:09:07;;;;;;;;;;;;;;;;;;5061791;28;19928;-85
2023/08/06 07:11:32;;;;;;;;;;;;;;;;;;5060238;28;19920;-86
2023/08/06 07:13:58;;;;;;;;;;;;;;;;;;5058911;28;20290;-86
2023/08/06 07:16:23;;;;;;;;;;;;;;;;;;5060499;28;19916;-86
2023/08/06 07:18:48;;;;;;;;;;;;;;;;;;5060166;28;19913;-85
2023/08/06 07:21:14;;;;;;;;;;;;;;;;;;5062430;28;19920;-85
2023/08/06 07:23:39;;;;;;;;;;;;;;;;;;5063194;28;19952;-85
2023/08/06 07:26:04;;;;;;;;;;;;;;;;;;5058510;28;19913;-85
2023/08/06 07:28:29;;;;;;;;;;;;;;;;;;5060808;28;19916;-84
2023/08/06 07:30:54;;;;;;;;;;;;;;;;;;5059548;28;19917;-85
2023/08/06 07:33:19;;;;;;;;;;;;;;;;;;5064845;28;19924;-85
2023/08/06 07:35:44;;;;;;;;;;;;;;;;;;5062843;28;19943;-85
2023/08/06 07:38:09;;;;;;;;;;;;;;;;;;5063059;28;19917;-85
2023/08/06 07:40:34;;;;;;;;;;;;;;;;;;5059809;28;20011;-84
2023/08/06 07:43:00;;;;;;;;;;;;;;;;;;5058813;28;19935;-87
2023/08/06 07:45:26;;;;;;;;;;;;;;;;;;5058631;28;19923;-85
2023/08/06 07:47:51;;;;;;;;;;;;;;;;;;5057534;28;19938;-84
2023/08/06 07:50:16;;;;;;;;;;;;;;;;;;5057187;28;20129;-84
2023/08/06 07:52:42;;;;;;;;;;;;;;;;;;5059918;28;20160;-84
2023/08/06 07:55:07;;;;;;;;;;;;;;;15.87;nan;99317.59;5057926;28;19916;-84
2023/08/06 07:57:33;;;;;;;;;;;;;;;;;;5057225;28;20414;-85
2023/08/06 07:59:58;;;;;;;;;;;;;;;;;;5052182;28;19921;-85
2023/08/06 08:02:23;;;;;;;;;;;;;;;;;;5058811;28;20174;-85
2023/08/06 08:04:48;;;;;;;;;;;;;;;;;;5059374;28;19923;-85
2023/08/06 08:07:14;;;;;;;;;;;;;;;16.12;nan;99308.78;5057083;28;19920;-84
2023/08/06 08:09:39;;;;;;;;;;;;;;;;;;5057009;28;20013;-83
2023/08/06 08:12:04;;;;;;;;;;;;;;;;;;5057086;28;19952;-84
2023/08/06 08:14:35;;;;;;;;;;;;;;;;;;5056528;28;20008;-84
2023/08/06 08:17:00;;;;;;;;;;;;;;;15.67;nan;99317.69;5060914;28;19920;-83
2023/08/06 08:19:25;;;;;;;;;;;;;;;;;;5054966;28;19917;-85
2023/08/06 08:21:50;;;;;;;;;;;;;;;;;;5052552;28;19963;-85
2023/08/06 08:24:15;;;;;;;;;;;;;;;;;;5051328;28;19923;-85
2023/08/06 08:26:41;;;;;;;;;;;;;;;15.86;nan;99307.16;5051665;28;19913;-85
2023/08/06 08:29:06;;;;;;;;;;;;;;;;;;5046664;28;19917;-85
2023/08/06 08:31:31;;;;;;;;;;;;;;;16.10;nan;99306.34;5048477;28;19928;-85
2023/08/06 08:33:56;;;;;;;;;;;;;;;16.21;nan;99312.81;5050184;28;19924;-85
2023/08/06 08:36:21;;;;;;;;;;;;;;;16.28;nan;99302.91;5049230;28;20382;-85
2023/08/06 08:38:47;;;;;;;;;;;;;;;16.39;nan;99308.56;5050015;28;19917;-85
2023/08/06 08:41:12;;;;;;;;;;;;;;;16.59;nan;99316.38;5046019;28;19917;-85
2023/08/06 08:43:38;;;;;;;;;;;;;;;16.71;nan;99303.94;5049996;28;19919;-84
2023/08/06 08:46:03;;;;;;;;;;;;;;;16.82;nan;99302.41;5049339;28;19916;-84
2023/08/06 08:48:29;;;;;;;;;;;;;;;16.91;nan;99301.06;5046743;28;20382;-85
2023/08/06 08:50:55;;;;;;;;;;;;;;;16.88;nan;99307.69;5046242;28;19923;-84
2023/08/06 08:53:20;;;;;;;;;;;;;;;;;;5052247;28;19924;-84
2023/08/06 08:55:45;;;;;;;;;;;;;;;;;;5052041;28;19923;-85
2023/08/06 08:58:10;;;;;;;;;;;;;;;16.46;nan;99278.09;5050675;28;20099;-84
2023/08/06 09:00:36;;;;;;;;;;;;;;;16.52;nan;99287.09;5050142;28;19964;-85
2023/08/06 09:03:02;;;;;;;;;;;;;;;16.75;nan;99297.09;5051023;28;19948;-84
2023/08/06 09:05:28;;;;;;;;;;;;;;;17.04;nan;99305.44;5050579;28;20025;-85
2023/08/06 09:07:54;;;;;;;;;;;;;;;17.43;nan;99301.44;5048831;28;19970;-84
2023/08/06 09:10:19;;;;;;;;;;;;;;;;;;5050344;28;19995;-85
2023/08/06 09:12:44;;;;;;;;;;;;;;;17.81;nan;99311.00;5049517;28;19963;-85
2023/08/06 09:15:10;;;;;;;;;;;;;;;17.46;nan;99340.25;5051437;28;20034;-85
2023/08/06 09:17:36;;;;;;;;;;;;;;;17.20;nan;99300.28;5050751;28;19924;-84
2023/08/06 09:20:08;;;;;;;;;;;;;;;17.26;nan;99490.16;5049153;28;19924;-85
2023/08/06 09:22:34;;;;;;;;;;;;;;;17.26;nan;99490.97;5058747;28;19993;-84
2023/08/06 09:24:59;;;;;;;;;;;;;;;17.31;nan;99490.28;5047629;28;19924;-84
2023/08/06 09:27:24;;;;;;;;;;;;;;;17.16;nan;99480.78;5051355;28;19921;-84
2023/08/06 09:29:49;;;;;;;;;;;;;;;16.97;nan;99487.09;5052844;28;19932;-84
2023/08/06 09:32:15;;;;;;;;;;;;;;;16.84;nan;99484.56;5050422;28;20283;-84
2023/08/06 09:34:40;;;;;;;;;;;;;;;16.59;nan;99481.84;5050965;28;19917;-83
2023/08/06 09:37:05;;;;;;;;;;;;;;;16.43;nan;99475.19;5049839;28;20031;-83
2023/08/06 09:39:31;;;;;;;;;;;;;;;16.35;nan;99469.06;5050743;28;19964;-84
2023/08/06 09:41:57;;;;;;;;;;;;;;;16.38;nan;99483.03;5051647;28;20278;-84
2023/08/06 09:44:23;;;;;;;;;;;;;;;16.55;nan;99479.59;5052794;28;19921;-85
2023/08/06 09:46:49;;;;;;;;;;;;;;;16.83;nan;99486.41;5051840;28;20323;-85
2023/08/06 09:49:15;;;;;;;;;;;;;;;17.21;nan;99477.44;5056332;28;19913;-84
2023/08/06 09:51:41;;;;;;;;;;;;;;;17.85;nan;99479.84;5056883;28;20539;-84
2023/08/06 09:54:07;;;;;;;;;;;;;;;18.18;nan;99476.72;5054026;28;20350;-84
2023/08/06 09:56:37;;;;;;;;;;;;;;;18.08;nan;99471.91;5057047;28;19944;-84
2023/08/06 09:59:04;;;;;;;;;;;;;;;17.66;nan;99462.97;5056356;28;20006;-84
2023/08/06 10:01:29;;;;;;;;;;;;;;;17.31;nan;99477.75;5055599;28;19917;-84
2023/08/06 10:03:57;;;;;;;;;;;;;;;17.06;nan;99496.47;5053919;28;19927;-85
2023/08/06 10:06:22;;;;;;;;;;;;;;;16.67;nan;99490.41;5050743;28;20374;-84
2023/08/06 10:08:48;;;;;;;;;;;;;;;16.46;nan;99494.25;5050781;28;19948;-85
2023/08/06 10:11:14;;;;;;;;;;;;;;;16.53;nan;99499.53;5050925;28;19929;-85
2023/08/06 10:13:40;;;;;;;;;;;;;;;16.64;nan;99509.53;5054932;28;19924;-86
2023/08/06 10:16:06;;;;;;;;;;;;;;;16.58;nan;99506.91;5055601;28;19944;-85
2023/08/06 10:18:31;;;;;;;;;;;;;;;16.65;nan;99516.50;5051399;28;19923;-86
2023/08/06 10:20:59;;;;;;;;;;;;;;;16.89;nan;99514.91;5051801;28;20062;-86
2023/08/06 10:23:33;;;;;;;;;;;;;;;17.11;nan;99512.69;5051228;28;19919;-85
2023/08/06 10:25:59;;;;;;;;;;;;;;;17.18;nan;99509.91;5053006;28;19917;-85
2023/08/06 10:28:33;;;;;;;;;;;;;;;17.14;nan;99509.56;5049343;28;19923;-85
2023/08/06 10:30:58;;;;;;;;;;;;;;;17.04;nan;99514.59;5045026;28;19927;-86
2023/08/06 10:33:24;;;;;;;;;;;;;;;16.93;nan;99512.63;5048910;28;19925;-85
2023/08/06 10:35:50;;;;;;;;;;;;;;;16.65;nan;99516.50;5049322;28;20581;-87
2023/08/06 10:38:15;;;;;;;;;;;;;;;16.41;nan;99530.63;5049000;28;19917;-85
2023/08/06 10:40:41;;;;;;;;;;;;;;;16.16;nan;99528.69;5050345;28;19962;-84
2023/08/06 10:43:08;;;;;;;;;;;;;;;15.97;nan;99533.09;5050553;28;20429;-84
2023/08/06 10:45:34;;;;;;;;;;;;;;;15.89;nan;99538.66;5050691;28;19984;-85
2023/08/06 10:47:59;;;;;;;;;;;;;;;15.84;nan;99541.13;5050238;28;20439;-85
2023/08/06 10:50:25;;;;;;;;;;;;;;;15.80;nan;99537.22;5049610;28;19921;-85
2023/08/06 10:52:50;;;;;;;;;;;;;;;15.76;nan;99546.69;5043832;28;19971;-86
2023/08/06 10:55:28;;;;;;;;;;;;;;;15.78;nan;99556.13;5051189;28;19916;-85
2023/08/06 10:57:54;;;;;;;;;;;;;;;15.76;nan;99552.84;5049860;28;19927;-86
2023/08/06 11:00:20;;;;;;;;;;;;;;;15.75;nan;99561.03;5049199;28;20050;-86
2023/08/06 11:02:46;;;;;;;;;;;;;;;15.76;nan;99552.03;5050205;28;19925;-85
2023/08/06 11:05:12;;;;;;;;;;;;;;;15.71;nan;99561.47;5049175;28;19959;-85
2023/08/06 11:07:37;;;;;;;;;;;;;;;15.71;nan;99556.13;5048790;28;19952;-85
2023/08/06 11:10:02;;;;;;;;;;;;;;;15.69;nan;99562.66;5049676;28;19953;-86
2023/08/06 11:12:28;;;;;;;;;;;;;;;15.64;nan;99560.63;5048159;28;19982;-85
2023/08/06 11:14:53;;;;;;;;;;;;;;;15.64;nan;99563.28;5048500;28;20038;-85
2023/08/06 11:17:18;;;;;;;;;;;;;;;15.64;nan;99568.63;5047979;28;20310;-86
2023/08/06 11:19:44;;;;;;;;;;;;;;;15.64;nan;99567.81;5048319;28;19968;-85
2023/08/06 11:22:09;;;;;;;;;;;;;;;15.69;nan;99573.34;5047781;28;20020;-86
2023/08/06 11:24:34;;;;;;;;;;;;;;;15.76;nan;99574.16;5048494;28;19979;-85
2023/08/06 11:26:59;;;;;;;;;;;;;;;15.84;nan;99584.59;5049956;28;19917;-85
2023/08/06 11:29:26;;;;;;;;;;;;;;;15.86;nan;99595.06;5048491;28;20008;-85
2023/08/06 11:31:51;;;;;;;;;;;;;;;15.95;nan;99585.00;5047358;28;19924;-85
2023/08/06 11:34:16;;;;;;;;;;;;;;;16.14;nan;99576.91;5049117;28;20280;-84
2023/08/06 11:36:42;;;;;;;;;;;;;;;16.50;nan;99583.50;5051586;28;19952;-84
2023/08/06 11:39:07;;;;;;;;;;;;;;;16.86;nan;99587.44;5052628;28;19916;-84
2023/08/06 11:41:32;;;;;;;;;;;;;;;17.01;nan;99588.97;5050878;28;20158;-85
2023/08/06 11:44:01;;;;;;;;;;;;;;;17.05;nan;99592.84;5049588;28;19917;-86
2023/08/06 11:46:26;;;;;;;;;;;;;;;16.98;nan;99595.56;5049529;28;19967;-85
2023/08/06 11:48:55;;;;;;;;;;;;;;;16.91;nan;99590.28;5050134;28;19983;-86
2023/08/06 11:51:27;;;;;;;;;;;;;;;16.86;nan;99600.78;5047179;28;20305;-85
2023/08/06 11:53:56;;;;;;;;;;;;;;;16.81;nan;99600.63;5049557;28;19923;-86
2023/08/06 11:56:21;;;;;;;;;;;;;;;16.80;nan;99595.47;5049739;28;19916;-86
2023/08/06 11:58:46;;;;;;;;;;;;;;;16.70;nan;99606.59;5050936;28;20413;-85
2023/08/06 12:01:11;;;;;;;;;;;;;;;16.69;nan;99618.31;5049168;28;19916;-86
2023/08/06 12:03:40;;;;;;;;;;;;;;;16.69;nan;99616.47;5046920;28;19916;-85
2023/08/06 12:06:05;;;;;;;;;;;;;;;16.70;nan;99622.63;5049906;28;19917;-86
2023/08/06 12:08:30;;;;;;;;;;;;;;;16.74;nan;99637.19;5049270;28;20432;-85
2023/08/06 12:10:55;;;;;;;;;;;;;;;16.81;nan;99637.19;5046636;28;19924;-85
2023/08/06 12:13:20;;;;;;;;;;;;;;;16.83;nan;99638.59;5048763;28;19931;-85
2023/08/06 12:15:46;;;;;;;;;;;;;;;16.77;nan;99644.75;5047545;28;19944;-85
2023/08/06 12:18:11;;;;;;;;;;;;;;;16.82;nan;99646.81;5047630;28;19936;-85
2023/08/06 12:20:38;;;;;;;;;;;;;;;16.85;nan;99643.72;5043541;28;19917;-85
2023/08/06 12:23:03;;;;;;;;;;;;;;;16.93;nan;99648.81;5048871;28;19917;-84
2023/08/06 12:25:28;;;;;;;;;;;;;;;17.00;nan;99649.59;5049581;28;19917;-85
2023/08/06 12:27:54;;;;;;;;;;;;;;;16.99;nan;99661.28;5046109;28;19921;-84
2023/08/06 12:30:19;;;;;;;;;;;;;;;17.03;nan;99657.16;5045168;28;19925;-85
2023/08/06 12:32:44;;;;;;;;;;;;;;;17.03;nan;99659.84;5045507;28;19927;-85
2023/08/06 12:35:09;;;;;;;;;;;;;;;16.97;nan;99674.03;5046631;28;20020;-87
2023/08/06 12:37:34;;;;;;;;;;;;;;;16.92;nan;99680.06;5041613;28;20589;-86
2023/08/06 12:40:00;;;;;;;;;;;;;;;16.92;nan;99684.53;5042707;28;19913;-85
2023/08/06 12:42:25;;;;;;;;;;;;;;;16.95;nan;99687.63;5043154;28;19989;-86
2023/08/06 12:44:50;;;;;;;;;;;;;;;16.98;nan;99686.38;5039990;28;20374;-87
2023/08/06 12:47:16;;;;;;;;;;;;;;;16.99;nan;99696.00;5042312;28;19924;-86
2023/08/06 12:49:41;;;;;;;;;;;;;;;17.04;nan;99693.53;5046132;28;20089;-86
2023/08/06 12:52:07;;;;;;;;;;;;;;;17.05;nan;99697.03;5044717;28;20006;-86
2023/08/06 12:54:36;;;;;;;;;;;;;;;17.07;nan;99697.63;5045277;28;20078;-86
2023/08/06 12:57:02;;;;;;;;;;;;;;;17.08;nan;99693.91;5046336;28;20217;-86
2023/08/06 12:59:27;;;;;;;;;;;;;;;17.13;nan;99704.78;5046891;28;19917;-86
2023/08/06 13:01:53;;;;;;;;;;;;;;;17.09;nan;99704.41;5046931;28;20070;-86
2023/08/06 13:04:18;;;;;;;;;;;;;;;17.03;nan;99713.25;5048775;28;20285;-86
2023/08/06 13:06:43;;;;;;;;;;;;;;;17.02;nan;99719.66;5049365;28;19924;-86
2023/08/06 13:09:09;;;;;;;;;;;;;;;16.98;nan;99719.25;5044844;28;19920;-86
2023/08/06 13:11:35;;;;;;;;;;;;;;;16.83;nan;99725.88;5045244;28;19921;-86
2023/08/06 13:14:05;;;;;;;;;;;;;;;16.54;nan;99744.88;5047205;28;19917;-84
2023/08/06 13:16:30;;;;;;;;;;;;;;;16.17;nan;99749.03;5046165;28;19917;-85
2023/08/06 13:18:55;;;;;;;;;;;;;;;15.93;nan;99769.16;5045525;28;20358;-85
2023/08/06 13:21:20;;;;;;;;;;;;;;;15.81;nan;99757.47;5045807;28;19928;-84
2023/08/06 13:23:45;;;;;;;;;;;;;;;15.76;nan;99754.59;5043916;28;20361;-85
2023/08/06 13:26:12;;;;;;;;;;;;;;;15.66;nan;99758.47;5045607;28;19925;-85
2023/08/06 13:28:37;;;;;;;;;;;;;;;15.64;nan;99757.03;5046179;28;20424;-86
2023/08/06 13:31:03;;;;;;;;;;;;;;;15.61;nan;99765.41;5044242;28;19928;-85
2023/08/06 13:33:30;;;;;;;;;;;;;;;15.58;nan;99769.31;5045085;28;22615;-86
2023/08/06 13:35:55;;;;;;;;;;;;;;;15.56;nan;99767.88;5044814;28;20007;-85
2023/08/06 13:38:20;;;;;;;;;;;;;;;15.45;nan;99775.44;5044200;28;19939;-86
2023/08/06 13:40:46;;;;;;;;;;;;;;;15.46;nan;99776.25;5042904;28;20392;-87
2023/08/06 13:43:11;;;;;;;;;;;;;;;15.46;nan;99782.41;5047934;28;19917;-86
2023/08/06 13:45:37;;;;;;;;;;;;;;;15.39;nan;99788.75;5047892;28;19931;-86
2023/08/06 13:48:03;;;;;;;;;;;;;;;15.38;nan;99787.13;5045362;28;20297;-87
2023/08/06 13:50:29;;;;;;;;;;;;;;;15.36;nan;99792.63;5050412;28;19921;-86
2023/08/06 13:52:55;;;;;;;;;;;;;;;15.44;nan;99787.09;5053060;28;20059;-86
2023/08/06 13:55:20;;;;;;;;;;;;;;;15.54;nan;99793.88;5049824;28;19935;-85
2023/08/06 13:57:45;;;;;;;;;;;;;;;15.61;nan;99797.38;5048465;28;19917;-86
2023/08/06 14:00:11;;;;;;;;;;;;;;;15.65;nan;99801.28;5048738;28;19931;-86